Terminal Aerodrome Forecast
Issued by NWS

Home | Current Version | Previous Version | Text Only | Print | Product List | Glossary On
Versions: 1 2 3 4 5 6 7 8 9 10 11 12 13 14 15 16 17 18 19
000
FTUS44 KTSA 231700 RRA
TAFBVO
TAF
KBVO 231753Z 2318/2418 17013G21KT P6SM SCT250
     FM240200 17015KT P6SM BKN150 PROB30 2406/2412 TS OVC040CB
     FM241200 18012KT P6SM BKN015
     FM241600 25011KT P6SM SCT050=

USA.gov is the U.S. government's official web portal to all federal, state and local government web resources and services.